Georgia Highway — 7JCV — position and weather

sailwx.info

Track history (hours):
 
Tides and Currents Weather Stations Pressure Air Temp Water Temp Dewpoint Dewpoint Depression Visibility Wind Speed Wind Dir Waves Ship Positions

Georgia Highway

Last reported at 2014-Aug-13 23:33 UTC. Time now 2014-Aug-22 21:39 UTC.
Position N 34°17' W 076°20'.
Warning: this ship's position is 8 days out of date.

Length 199 m; draft 8.9 m.

Type: Cargo ship. MMSI: 432629000.

Date/timePositionNaut miles runAvg speedWind from/ knotsBaromVisibWave heightAir tempDewpointWater temp
2014-Aug-13 23:33N 34°17' W 076°20'1817.9
2014-Aug-13 22:33N 34°29' W 076°04'13815.3
2014-Aug-13 13:32N 36°46' W 075°44'1616.2
2014-Aug-13 12:32N 36°57' W 075°59'1717.0
2014-Aug-13 11:32N 37°11' W 076°09'10717.9
2014-Aug-13 05:33N 38°58' W 076°23'1414.3
2014-Aug-13 04:33N 39°12' W 076°29'6 5.4
2014-Aug-13 03:31N 39°15' W 076°35'0 0.0
2014-Aug-13 02:31N 39°15' W 076°35'0 0.0
2014-Aug-13 01:31N 39°15' W 076°35'0 0.0
2014-Aug-13 00:31N 39°15' W 076°35'0 0.0
2014-Aug-12 23:31N 39°15' W 076°35'0 0.0
2014-Aug-12 22:31N 39°15' W 076°35'0 0.0
2014-Aug-12 21:31N 39°15' W 076°35'0 0.0
2014-Aug-12 20:28N 39°15' W 076°35'0 0.0
2014-Aug-12 19:31N 39°15' W 076°35'1 0.6
2014-Aug-12 18:33N 39°15' W 076°34'1 1.5
2014-Aug-12 17:33N 39°15' W 076°32'0 0.0
2014-Aug-12 16:31N 39°15' W 076°32'0 0.0
2014-Aug-12 15:31N 39°15' W 076°32'0 0.0
2014-Aug-12 14:31N 39°15' W 076°32'0 0.0
2014-Aug-12 13:31N 39°15' W 076°32'0 0.0
2014-Aug-12 12:31N 39°15' W 076°32'0 0.0
2014-Aug-12 11:31N 39°15' W 076°32'0 0.0
2014-Aug-12 10:34N 39°15' W 076°32'0 0.0
2014-Aug-12 09:34N 39°15' W 076°32'0 0.0
2014-Aug-12 08:31N 39°15' W 076°32'0 0.0
2014-Aug-12 07:34N 39°15' W 076°32'0 0.0
2014-Aug-12 06:31N 39°15' W 076°32'0 0.0
2014-Aug-12 05:34N 39°15' W 076°32'0 0.0
2014-Aug-12 04:33N 39°15' W 076°32'0 0.0
2014-Aug-12 03:31N 39°15' W 076°32'0 0.0
2014-Aug-12 02:31N 39°15' W 076°32'0 0.0
2014-Aug-12 01:34N 39°15' W 076°32'1 1.0
2014-Aug-12 00:31N 39°14' W 076°33'0 0.0
2014-Aug-11 23:31N 39°14' W 076°33'7 7.7
2014-Aug-11 22:34N 39°10' W 076°25'1717.0
2014-Aug-11 21:33N 38°53' W 076°24'9218.1
2014-Aug-11 16:28N 37°22' W 076°05'1617.8
2014-Aug-11 15:33N 37°06' W 076°07'1514.6
2014-Aug-11 14:32N 36°55' W 075°54'1313.0
2014-Aug-11 13:31N 36°50' W 075°39'9418.3
2014-Aug-11 08:22N 36°52' W 073°42'1518.2
2014-Aug-11 07:34N 36°53' W 073°23'1717.4
2014-Aug-11 06:34N 36°54' W 073°02'1414.2
2014-Aug-11 05:33N 36°55' W 072°44'1814.1
2014-Aug-11 04:17N 36°57' W 072°22'  
Track history (hours):
 
Tides and Currents Weather Stations Pressure Air Temp Water Temp Dewpoint Dewpoint Depression Visibility Wind Speed Wind Dir Waves Ship Positions

Georgia Highway

Last reported at 2014-Aug-13 23:33 UTC. Time now 2014-Aug-22 21:39 UTC.
Position N 34°17' W 076°20'.
Warning: this ship's position is 8 days out of date.

Length 199 m; draft 8.9 m.

Type: Cargo ship. MMSI: 432629000.

Date/timePositionNaut miles runAvg speedWind from/ knotsBaromVisibWave heightAir tempDewpointWater temp
2014-Aug-13 23:33N 34°17' W 076°20'1817.9
2014-Aug-13 22:33N 34°29' W 076°04'13815.3
2014-Aug-13 13:32N 36°46' W 075°44'1616.2
2014-Aug-13 12:32N 36°57' W 075°59'1717.0
2014-Aug-13 11:32N 37°11' W 076°09'10717.9
2014-Aug-13 05:33N 38°58' W 076°23'1414.3
2014-Aug-13 04:33N 39°12' W 076°29'6 5.4
2014-Aug-13 03:31N 39°15' W 076°35'0 0.0
2014-Aug-13 02:31N 39°15' W 076°35'0 0.0
2014-Aug-13 01:31N 39°15' W 076°35'0 0.0
2014-Aug-13 00:31N 39°15' W 076°35'0 0.0
2014-Aug-12 23:31N 39°15' W 076°35'0 0.0
2014-Aug-12 22:31N 39°15' W 076°35'0 0.0
2014-Aug-12 21:31N 39°15' W 076°35'0 0.0
2014-Aug-12 20:28N 39°15' W 076°35'0 0.0
2014-Aug-12 19:31N 39°15' W 076°35'1 0.6
2014-Aug-12 18:33N 39°15' W 076°34'1 1.5
2014-Aug-12 17:33N 39°15' W 076°32'0 0.0
2014-Aug-12 16:31N 39°15' W 076°32'0 0.0
2014-Aug-12 15:31N 39°15' W 076°32'0 0.0
2014-Aug-12 14:31N 39°15' W 076°32'0 0.0
2014-Aug-12 13:31N 39°15' W 076°32'0 0.0
2014-Aug-12 12:31N 39°15' W 076°32'0 0.0
2014-Aug-12 11:31N 39°15' W 076°32'0 0.0
2014-Aug-12 10:34N 39°15' W 076°32'0 0.0
2014-Aug-12 09:34N 39°15' W 076°32'0 0.0
2014-Aug-12 08:31N 39°15' W 076°32'0 0.0
2014-Aug-12 07:34N 39°15' W 076°32'0 0.0
2014-Aug-12 06:31N 39°15' W 076°32'0 0.0
2014-Aug-12 05:34N 39°15' W 076°32'0 0.0
2014-Aug-12 04:33N 39°15' W 076°32'0 0.0
2014-Aug-12 03:31N 39°15' W 076°32'0 0.0
2014-Aug-12 02:31N 39°15' W 076°32'0 0.0
2014-Aug-12 01:34N 39°15' W 076°32'1 1.0
2014-Aug-12 00:31N 39°14' W 076°33'0 0.0
2014-Aug-11 23:31N 39°14' W 076°33'7 7.7
2014-Aug-11 22:34N 39°10' W 076°25'1717.0
2014-Aug-11 21:33N 38°53' W 076°24'9218.1
2014-Aug-11 16:28N 37°22' W 076°05'1617.8
2014-Aug-11 15:33N 37°06' W 076°07'1514.6
2014-Aug-11 14:32N 36°55' W 075°54'1313.0
2014-Aug-11 13:31N 36°50' W 075°39'9418.3
2014-Aug-11 08:22N 36°52' W 073°42'1518.2
2014-Aug-11 07:34N 36°53' W 073°23'1717.4
2014-Aug-11 06:34N 36°54' W 073°02'1414.2
2014-Aug-11 05:33N 36°55' W 072°44'1814.1
2014-Aug-11 04:17N 36°57' W 072°22'  

Dump ship's entire track history